createdAt,value
2023-05-05T00:01:47.047Z,14.53
2023-05-05T00:06:49.621Z,14.13
2023-05-05T00:11:52.244Z,13.94
2023-05-05T00:16:54.917Z,13.73
2023-05-05T00:21:57.459Z,13.45
2023-05-05T00:26:59.892Z,13.26
2023-05-05T00:32:02.360Z,13.36
2023-05-05T00:37:04.876Z,13.37
2023-05-05T00:42:07.578Z,13.44
2023-05-05T00:47:10.247Z,13.42
2023-05-05T00:52:12.731Z,13.39
2023-05-05T00:57:15.285Z,13.30
2023-05-05T01:02:17.809Z,13.34
2023-05-05T01:07:26.118Z,13.35
2023-05-05T01:12:34.742Z,13.35
2023-05-05T01:17:43.009Z,13.40
2023-05-05T01:22:59.839Z,13.38
2023-05-05T01:28:27.300Z,13.41
2023-05-05T01:33:37.262Z,13.36
2023-05-05T01:38:44.455Z,13.36
2023-05-05T01:43:50.519Z,13.35
2023-05-05T01:48:56.392Z,13.40
2023-05-05T01:54:03.023Z,13.33
2023-05-05T01:59:07.320Z,13.27
2023-05-05T02:04:11.270Z,13.32
2023-05-05T02:09:15.543Z,13.56
2023-05-05T02:14:20.807Z,13.99
2023-05-05T02:19:28.940Z,14.07
2023-05-05T02:24:31.400Z,14.57
2023-05-05T02:29:45.362Z,14.97
2023-05-05T02:34:51.069Z,15.44
2023-05-05T02:40:09.311Z,16.05
2023-05-05T02:45:16.136Z,16.29
2023-05-05T02:50:22.117Z,16.66
2023-05-05T02:55:55.152Z,17.33
2023-05-05T03:01:11.163Z,18.10
2023-05-05T03:06:27.603Z,18.27
2023-05-05T03:11:45.346Z,17.99
2023-05-05T03:16:49.746Z,18.56
2023-05-05T03:21:53.289Z,19.21
2023-05-05T03:26:55.996Z,19.97
2023-05-05T03:32:01.780Z,21.05
2023-05-05T03:37:05.549Z,21.80
2023-05-05T03:42:08.509Z,21.94
2023-05-05T03:47:11.878Z,23.40
2023-05-05T03:52:15.438Z,24.39
2023-05-05T03:57:19.671Z,24.04
2023-05-05T04:02:22.311Z,23.38
2023-05-05T04:07:25.291Z,24.10
2023-05-05T04:12:28.654Z,24.46
2023-05-05T04:17:32.316Z,25.25
2023-05-05T04:22:34.989Z,23.16
2023-05-05T04:27:38.204Z,23.33
2023-05-05T04:32:41.189Z,24.22
2023-05-05T04:37:45.231Z,24.08
2023-05-05T04:42:48.543Z,23.70
2023-05-05T04:47:51.223Z,23.15
2023-05-05T04:52:53.860Z,22.77
2023-05-05T04:57:56.479Z,22.48
2023-05-05T05:02:59.555Z,22.30
2023-05-05T05:08:02.100Z,22.40
2023-05-05T05:13:04.616Z,22.44
2023-05-05T05:18:07.398Z,22.36
2023-05-05T05:23:10.102Z,22.08
2023-05-05T05:28:17.430Z,22.22
2023-05-05T05:33:27.881Z,22.24
2023-05-05T05:38:32.387Z,22.59
2023-05-05T05:43:37.766Z,24.80
2023-05-05T05:48:41.132Z,25.55
2023-05-05T05:53:44.133Z,26.67
2023-05-05T05:58:48.817Z,27.88
2023-05-05T06:03:53.021Z,28.25
2023-05-05T06:08:56.470Z,28.48
2023-05-05T06:13:59.999Z,28.49
2023-05-05T06:19:02.710Z,28.89
2023-05-05T06:24:05.876Z,28.77
2023-05-05T06:29:12.202Z,29.56
2023-05-05T06:34:27.092Z,29.27
2023-05-05T06:39:29.642Z,28.81
2023-05-05T06:44:32.132Z,28.10
2023-05-05T06:49:34.530Z,28.82
2023-05-05T06:54:37.056Z,29.18
2023-05-05T06:59:39.446Z,29.17
2023-05-05T07:04:41.923Z,28.94
2023-05-05T07:09:45.321Z,28.53
2023-05-05T07:14:47.717Z,27.36
2023-05-05T07:19:51.601Z,27.85
2023-05-05T07:24:54.228Z,26.47
2023-05-05T07:29:56.939Z,28.16
2023-05-05T07:34:59.369Z,27.29
2023-05-05T07:40:01.862Z,27.44
2023-05-05T07:45:06.730Z,28.59
2023-05-05T07:50:11.252Z,29.26
2023-05-05T07:55:14.046Z,30.14
2023-05-05T08:00:19.694Z,29.36
2023-05-05T08:05:22.165Z,30.31
2023-05-05T08:10:24.659Z,30.29
2023-05-05T08:15:27.172Z,28.14
2023-05-05T08:20:30.039Z,29.12
2023-05-05T08:25:32.655Z,30.48
2023-05-05T08:30:36.468Z,31.14
2023-05-05T08:35:39.089Z,29.84
2023-05-05T08:40:41.923Z,28.67
2023-05-05T08:45:45.116Z,29.43
2023-05-05T08:50:59.794Z,29.86
2023-05-05T08:56:05.178Z,29.21
2023-05-05T09:01:08.187Z,30.50
2023-05-05T09:06:11.621Z,30.56
2023-05-05T09:11:14.302Z,29.93
2023-05-05T09:16:17.027Z,29.36
2023-05-05T09:21:25.100Z,28.23
2023-05-05T09:26:31.139Z,28.23
2023-05-05T09:31:35.851Z,30.70
2023-05-05T09:36:43.579Z,30.82
2023-05-05T09:41:47.140Z,30.56
2023-05-05T09:46:52.246Z,30.74
2023-05-05T09:51:55.478Z,30.72
2023-05-05T09:56:58.119Z,29.49
2023-05-05T10:02:13.039Z,29.75
2023-05-05T10:07:25.243Z,30.11
2023-05-05T10:12:30.383Z,30.29
2023-05-05T10:17:37.421Z,30.61
2023-05-05T10:22:51.933Z,29.48
2023-05-05T10:27:56.318Z,28.95
2023-05-05T10:33:30.015Z,29.00
2023-05-05T10:38:33.506Z,29.22
2023-05-05T10:43:36.973Z,29.35
2023-05-05T10:48:46.408Z,29.10
2023-05-05T10:54:02.408Z,28.78
2023-05-05T10:59:39.906Z,27.88
2023-05-05T11:04:42.526Z,27.93
2023-05-05T11:09:56.053Z,27.47
2023-05-05T11:15:26.904Z,26.50
2023-05-05T11:20:35.656Z,25.86
2023-05-05T11:25:41.275Z,25.72
2023-05-05T11:30:59.716Z,25.73
2023-05-05T11:36:14.674Z,25.60
2023-05-05T11:41:50.543Z,25.67
2023-05-05T11:46:52.915Z,25.38
2023-05-05T11:52:09.514Z,24.87
2023-05-05T11:57:12.038Z,24.59
2023-05-05T12:02:17.641Z,24.75
2023-05-05T12:07:22.483Z,24.68
2023-05-05T12:12:36.072Z,24.84
2023-05-05T12:17:46.189Z,24.99
2023-05-05T12:22:49.073Z,24.98
2023-05-05T12:27:54.367Z,24.73
2023-05-05T12:33:05.561Z,24.81
2023-05-05T12:38:08.187Z,24.71
2023-05-05T12:43:33.041Z,24.57
2023-05-05T12:48:40.590Z,24.52
2023-05-05T12:53:43.824Z,24.24
2023-05-05T12:58:49.206Z,24.09
2023-05-05T13:04:12.480Z,24.09
2023-05-05T13:09:34.157Z,23.77
2023-05-05T13:14:36.924Z,23.71
2023-05-05T13:19:46.522Z,23.57
2023-05-05T13:24:52.390Z,23.58
2023-05-05T13:30:10.060Z,23.53
2023-05-05T13:35:14.021Z,23.52
2023-05-05T13:40:18.738Z,23.32
2023-05-05T13:45:21.582Z,23.32
2023-05-05T13:50:24.288Z,23.34
2023-05-05T13:55:28.732Z,23.32
2023-05-05T14:00:31.945Z,23.28
2023-05-05T14:05:35.020Z,23.13
2023-05-05T14:10:37.544Z,23.07
2023-05-05T14:15:40.058Z,23.01
2023-05-05T14:20:43.008Z,23.10
2023-05-05T14:25:45.581Z,23.25
2023-05-05T14:30:48.046Z,23.36
2023-05-05T14:35:50.589Z,23.39
2023-05-05T14:40:53.187Z,23.25
2023-05-05T14:45:58.519Z,23.06
2023-05-05T14:51:01.333Z,23.00
2023-05-05T14:56:04.191Z,23.02
2023-05-05T15:01:06.751Z,22.86
2023-05-05T15:06:09.370Z,22.75
2023-05-05T15:11:11.966Z,22.67
2023-05-05T15:16:14.571Z,22.58
2023-05-05T15:21:17.224Z,22.52
2023-05-05T15:26:19.838Z,22.46
2023-05-05T15:31:22.353Z,22.42
2023-05-05T15:36:24.995Z,22.36
2023-05-05T15:41:29.635Z,22.28
2023-05-05T15:46:35.749Z,22.29
2023-05-05T15:51:38.651Z,22.23
2023-05-05T15:56:41.290Z,21.97
2023-05-05T16:01:43.833Z,21.55
2023-05-05T16:06:46.313Z,21.18
2023-05-05T16:11:48.827Z,21.01
2023-05-05T16:16:51.355Z,20.73
2023-05-05T16:21:54.528Z,20.48
2023-05-05T16:26:57.030Z,20.18
2023-05-05T16:31:59.656Z,19.99
2023-05-05T16:37:02.239Z,19.80
2023-05-05T16:42:04.906Z,19.66
2023-05-05T16:47:07.384Z,19.60
2023-05-05T16:52:09.903Z,19.61
2023-05-05T16:57:13.085Z,19.65
2023-05-05T17:02:15.662Z,19.64
2023-05-05T17:07:18.152Z,19.62
2023-05-05T17:12:20.786Z,19.56
2023-05-05T17:17:23.387Z,19.58
2023-05-05T17:22:26.041Z,19.61
2023-05-05T17:27:28.502Z,19.68
2023-05-05T17:32:31.122Z,19.72
2023-05-05T17:37:33.988Z,19.72
2023-05-05T17:42:36.458Z,19.72
2023-05-05T17:47:38.976Z,19.74
2023-05-05T17:52:41.490Z,19.71
2023-05-05T17:57:43.956Z,19.62
2023-05-05T18:02:46.650Z,19.36
2023-05-05T18:07:49.129Z,19.37
2023-05-05T18:12:51.750Z,19.34
2023-05-05T18:17:54.448Z,19.37
2023-05-05T18:22:56.878Z,19.30
2023-05-05T18:27:59.603Z,19.34
2023-05-05T18:33:02.645Z,19.33
2023-05-05T18:38:05.644Z,19.30
2023-05-05T18:43:08.175Z,19.12
2023-05-05T18:48:10.654Z,18.99
2023-05-05T18:53:15.003Z,18.91
2023-05-05T18:58:17.851Z,18.75
2023-05-05T19:03:20.739Z,18.58
2023-05-05T19:08:23.282Z,18.39
2023-05-05T19:13:25.903Z,18.25
2023-05-05T19:18:28.439Z,18.17
2023-05-05T19:23:31.252Z,18.20
2023-05-05T19:28:33.841Z,18.21
2023-05-05T19:33:36.775Z,18.11
2023-05-05T19:38:44.578Z,17.98
2023-05-05T19:43:47.324Z,17.80
2023-05-05T19:48:49.794Z,17.70
2023-05-05T19:53:52.307Z,17.61
2023-05-05T19:59:01.037Z,17.52
2023-05-05T20:04:03.959Z,17.41
2023-05-05T20:09:06.624Z,17.26
2023-05-05T20:14:09.309Z,17.20
2023-05-05T20:19:11.810Z,17.16
2023-05-05T20:24:14.245Z,16.99
2023-05-05T20:29:18.187Z,16.85
2023-05-05T20:34:20.690Z,16.81
2023-05-05T20:39:23.170Z,16.79
2023-05-05T20:44:25.904Z,16.66
2023-05-05T20:49:28.407Z,16.23
2023-05-05T20:54:34.510Z,15.93
2023-05-05T20:59:38.231Z,15.91
2023-05-05T21:04:40.754Z,15.89
2023-05-05T21:09:46.572Z,15.80
2023-05-05T21:14:49.054Z,15.68
2023-05-05T21:19:52.783Z,15.61
2023-05-05T21:24:55.670Z,15.54
2023-05-05T21:29:58.195Z,15.50
2023-05-05T21:35:00.899Z,15.54
2023-05-05T21:40:03.477Z,15.55
2023-05-05T21:45:08.415Z,15.53
2023-05-05T21:50:12.372Z,15.48
2023-05-05T21:55:15.042Z,15.46
2023-05-05T22:00:17.687Z,15.47
2023-05-05T22:05:20.448Z,15.43
2023-05-05T22:10:23.648Z,15.52
2023-05-05T22:15:30.016Z,15.50
2023-05-05T22:20:35.690Z,15.45
2023-05-05T22:25:38.201Z,15.45
2023-05-05T22:30:40.983Z,15.47
2023-05-05T22:35:43.486Z,15.43
2023-05-05T22:40:46.317Z,15.30
2023-05-05T22:45:48.879Z,15.29
2023-05-05T22:50:51.809Z,15.21
2023-05-05T22:55:54.354Z,15.18
2023-05-05T23:00:57.122Z,15.14
2023-05-05T23:05:59.774Z,15.05
2023-05-05T23:11:02.271Z,15.00
2023-05-05T23:16:04.991Z,14.86
2023-05-05T23:21:07.619Z,15.14
2023-05-05T23:26:10.129Z,15.04
2023-05-05T23:31:12.634Z,15.12
2023-05-05T23:36:15.137Z,15.17
2023-05-05T23:41:19.232Z,15.11
2023-05-05T23:46:22.098Z,15.23
2023-05-05T23:51:24.854Z,15.38
2023-05-05T23:56:27.472Z,15.38
